createdAt,value
2023-03-22T00:00:54.495Z,7.35
2023-03-22T00:05:59.179Z,9.38
2023-03-22T00:11:01.246Z,11.23
2023-03-22T00:16:04.232Z,9.77
2023-03-22T00:21:06.360Z,7.40
2023-03-22T00:26:09.725Z,10.00
2023-03-22T00:31:12.309Z,7.13
2023-03-22T00:36:13.808Z,6.47
2023-03-22T00:41:18.778Z,7.85
2023-03-22T00:46:21.556Z,9.40
2023-03-22T00:51:23.075Z,11.38
2023-03-22T00:56:28.655Z,12.93
2023-03-22T01:01:35.734Z,9.07
2023-03-22T01:06:37.346Z,6.00
2023-03-22T01:11:39.180Z,7.22
2023-03-22T01:16:40.852Z,9.48
2023-03-22T01:21:42.585Z,9.20
2023-03-22T01:26:44.289Z,6.15
2023-03-22T01:31:45.943Z,7.00
2023-03-22T01:36:48.129Z,10.23
2023-03-22T01:41:49.807Z,6.70
2023-03-22T01:46:52.990Z,7.70
2023-03-22T01:52:00.576Z,7.22
2023-03-22T01:57:11.732Z,7.13
2023-03-22T02:02:19.124Z,6.90
2023-03-22T02:07:27.820Z,6.03
2023-03-22T02:12:37.167Z,8.35
2023-03-22T02:18:01.533Z,5.00
2023-03-22T02:23:03.022Z,5.88
2023-03-22T02:28:42.216Z,7.43
2023-03-22T02:33:52.483Z,5.88
2023-03-22T02:39:12.517Z,5.95
2023-03-22T02:44:23.363Z,5.72
2023-03-22T02:49:49.319Z,6.32
2023-03-22T02:55:04.199Z,5.80
2023-03-22T03:00:11.438Z,6.82
2023-03-22T03:05:14.884Z,6.25
2023-03-22T03:10:19.042Z,4.88
2023-03-22T03:15:23.479Z,5.15
2023-03-22T03:20:57.322Z,6.32
2023-03-22T03:26:02.305Z,6.68
2023-03-22T03:31:09.660Z,6.22
2023-03-22T03:36:18.103Z,6.53
2023-03-22T03:41:27.116Z,5.85
2023-03-22T03:46:29.559Z,6.00
2023-03-22T03:51:33.811Z,6.88
2023-03-22T03:56:35.398Z,4.22
2023-03-22T04:01:37.284Z,7.30
2023-03-22T04:06:46.034Z,7.45
2023-03-22T04:11:56.249Z,8.40
2023-03-22T04:16:57.930Z,7.70
2023-03-22T04:22:01.397Z,6.68
2023-03-22T04:27:05.471Z,6.95
2023-03-22T04:32:27.184Z,9.70
2023-03-22T04:37:33.653Z,7.13
2023-03-22T04:42:57.369Z,9.32
2023-03-22T04:48:10.614Z,9.10
2023-03-22T04:53:12.653Z,7.35
2023-03-22T04:58:16.145Z,12.85
2023-03-22T05:03:19.138Z,8.05
2023-03-22T05:08:22.535Z,9.93
2023-03-22T05:13:26.972Z,12.38
2023-03-22T05:18:29.286Z,8.93
2023-03-22T05:23:32.932Z,7.82
2023-03-22T05:28:35.731Z,9.93
2023-03-22T05:33:44.341Z,8.98
2023-03-22T05:38:48.846Z,7.35
2023-03-22T05:43:52.429Z,8.63
2023-03-22T05:48:56.098Z,7.97
2023-03-22T05:53:57.817Z,7.15
2023-03-22T05:59:06.944Z,6.38
2023-03-22T06:09:40.200Z,6.95
2023-03-22T06:14:45.366Z,7.43
2023-03-22T06:19:56.047Z,10.88
2023-03-22T06:24:58.976Z,8.15
2023-03-22T06:30:10.293Z,8.18
2023-03-22T06:35:29.350Z,8.77
2023-03-22T06:40:31.016Z,6.93
2023-03-22T06:45:33.436Z,7.78
2023-03-22T06:50:39.155Z,8.60
2023-03-22T06:55:46.189Z,8.00
2023-03-22T07:00:57.509Z,7.65
2023-03-22T07:06:05.845Z,6.68
2023-03-22T07:11:09.253Z,9.95
2023-03-22T07:16:11.977Z,10.27
2023-03-22T07:21:17.541Z,7.32
2023-03-22T07:26:25.953Z,9.55
2023-03-22T07:31:31.415Z,8.13
2023-03-22T07:36:38.276Z,9.18
2023-03-22T07:41:43.256Z,8.43
2023-03-22T07:46:59.970Z,8.30
2023-03-22T07:52:11.325Z,10.77
2023-03-22T07:57:12.904Z,5.88
2023-03-22T08:02:20.574Z,5.65
2023-03-22T08:07:26.202Z,7.15
2023-03-22T08:12:28.684Z,6.68
2023-03-22T08:17:39.744Z,6.22
2023-03-22T08:22:46.733Z,5.07
2023-03-22T08:28:06.824Z,5.05
2023-03-22T08:33:08.888Z,4.57
2023-03-22T08:38:11.058Z,4.60
2023-03-22T08:43:20.244Z,8.65
2023-03-22T08:48:22.049Z,12.17
2023-03-22T08:53:58.811Z,6.45
2023-03-22T08:59:26.542Z,5.72
2023-03-22T09:04:45.515Z,4.45
2023-03-22T09:09:47.196Z,4.80
2023-03-22T09:14:49.921Z,5.65
2023-03-22T09:20:02.684Z,5.40
2023-03-22T09:25:12.999Z,3.38
2023-03-22T09:30:17.382Z,3.75
2023-03-22T09:35:19.379Z,3.40
2023-03-22T09:40:49.930Z,2.80
2023-03-22T09:45:52.375Z,2.55
2023-03-22T09:50:55.287Z,4.43
2023-03-22T09:56:14.247Z,3.33
2023-03-22T10:01:29.092Z,2.38
2023-03-22T10:06:31.655Z,2.70
2023-03-22T10:11:39.009Z,1.77
2023-03-22T10:16:41.063Z,4.55
2023-03-22T10:21:43.616Z,5.05
2023-03-22T10:26:47.469Z,3.63
2023-03-22T10:31:49.029Z,3.40
2023-03-22T10:36:52.668Z,3.87
2023-03-22T10:41:58.091Z,2.75
2023-03-22T10:47:07.707Z,6.03
2023-03-22T10:52:23.972Z,3.08
2023-03-22T10:57:28.354Z,2.13
2023-03-22T11:02:32.689Z,3.13
2023-03-22T11:07:37.437Z,2.78
2023-03-22T11:12:47.095Z,2.80
2023-03-22T11:17:49.221Z,3.97
2023-03-22T11:22:51.250Z,2.90
2023-03-22T11:27:58.796Z,2.95
2023-03-22T11:33:21.135Z,2.40
2023-03-22T11:38:47.372Z,2.95
2023-03-22T11:43:56.769Z,2.08
2023-03-22T11:49:04.276Z,4.22
2023-03-22T11:54:16.597Z,6.28
2023-03-22T11:59:37.280Z,3.00
2023-03-22T12:04:41.714Z,2.90
2023-03-22T12:10:00.073Z,2.05
2023-03-22T12:15:11.119Z,2.90
2023-03-22T12:20:32.141Z,2.17
2023-03-22T12:25:36.090Z,2.88
2023-03-22T12:30:43.251Z,2.78
2023-03-22T12:35:46.791Z,1.75
2023-03-22T12:40:49.600Z,3.53
2023-03-22T12:45:58.375Z,3.67
2023-03-22T12:51:04.560Z,2.25
2023-03-22T12:56:06.627Z,1.92
2023-03-22T13:01:19.724Z,2.55
2023-03-22T13:06:46.298Z,2.30
2023-03-22T13:12:26.931Z,2.58
2023-03-22T13:17:28.774Z,1.70
2023-03-22T13:22:36.434Z,4.72
2023-03-22T13:27:57.171Z,2.60
2023-03-22T13:33:14.751Z,1.83
2023-03-22T13:38:22.257Z,4.05
2023-03-22T13:43:29.050Z,2.47
2023-03-22T13:48:39.606Z,2.25
2023-03-22T13:53:47.006Z,3.38
2023-03-22T13:58:52.824Z,4.78
2023-03-22T14:03:59.862Z,3.38
2023-03-22T14:09:13.342Z,2.38
2023-03-22T14:14:29.872Z,2.60
2023-03-22T14:19:33.377Z,3.10
